createdAt,value
2018-05-09T00:00:22.204Z,1.67
2018-05-09T00:02:50.132Z,1.90
2018-05-09T00:05:18.053Z,1.90
2018-05-09T00:07:45.964Z,1.93
2018-05-09T00:10:13.986Z,1.87
2018-05-09T00:12:41.997Z,1.90
2018-05-09T00:15:10.699Z,1.90
2018-05-09T00:17:38.674Z,1.80
2018-05-09T00:20:06.587Z,1.80
2018-05-09T00:22:34.581Z,1.97
2018-05-09T00:25:03.251Z,1.87
2018-05-09T00:27:31.203Z,2.00
2018-05-09T00:29:59.215Z,1.90
2018-05-09T00:32:27.902Z,1.83
2018-05-09T00:34:56.572Z,1.97
2018-05-09T00:37:25.235Z,2.00
2018-05-09T00:39:53.242Z,1.80
2018-05-09T00:42:21.925Z,1.87
2018-05-09T00:44:50.631Z,1.80
2018-05-09T00:47:18.613Z,1.80
2018-05-09T00:49:46.646Z,1.93
2018-05-09T00:52:15.386Z,1.73
2018-05-09T00:54:43.353Z,1.93
2018-05-09T00:57:11.251Z,1.90
2018-05-09T00:59:39.163Z,2.10
2018-05-09T01:02:07.079Z,1.97
2018-05-09T01:04:35.073Z,1.97
2018-05-09T01:07:03.857Z,2.10
2018-05-09T01:09:31.917Z,2.07
2018-05-09T01:11:59.813Z,2.03
2018-05-09T01:14:28.542Z,2.10
2018-05-09T01:16:56.552Z,2.13
2018-05-09T01:19:24.568Z,2.20
2018-05-09T01:21:52.502Z,2.10
2018-05-09T01:24:21.258Z,2.03
2018-05-09T01:26:49.260Z,2.00
2018-05-09T01:29:17.971Z,1.83
2018-05-09T01:31:45.954Z,2.13
2018-05-09T01:34:13.862Z,2.33
2018-05-09T01:36:41.835Z,2.30
2018-05-09T01:39:09.833Z,1.93
2018-05-09T01:41:38.707Z,2.40
2018-05-09T01:44:06.693Z,2.30
2018-05-09T01:46:35.400Z,2.37
2018-05-09T01:49:03.386Z,2.00
2018-05-09T01:51:31.366Z,2.00
2018-05-09T01:53:59.256Z,2.20
2018-05-09T01:56:27.144Z,2.00
2018-05-09T01:58:55.064Z,2.40
2018-05-09T02:01:22.975Z,2.57
2018-05-09T02:03:50.983Z,2.40
2018-05-09T02:06:18.922Z,2.30
2018-05-09T02:08:46.887Z,2.40
2018-05-09T02:11:14.863Z,2.77
2018-05-09T02:13:43.653Z,2.73
2018-05-09T02:16:12.398Z,3.27
2018-05-09T02:18:40.306Z,5.67
2018-05-09T02:21:09.060Z,10.30
2018-05-09T02:23:37.056Z,8.07
2018-05-09T02:26:05.026Z,4.80
2018-05-09T02:28:32.942Z,3.43
2018-05-09T02:31:00.893Z,3.30
2018-05-09T02:33:28.904Z,3.20
2018-05-09T02:35:56.877Z,3.30
2018-05-09T02:38:25.615Z,3.07
2018-05-09T02:40:54.367Z,3.10
2018-05-09T02:43:22.353Z,3.10
2018-05-09T02:45:50.336Z,3.43
2018-05-09T02:48:19.005Z,3.47
2018-05-09T02:50:47.105Z,3.70
2018-05-09T02:53:15.091Z,3.70
2018-05-09T02:55:43.077Z,3.90
2018-05-09T02:58:11.097Z,3.17
2018-05-09T03:00:39.790Z,3.30
2018-05-09T03:03:08.471Z,3.70
2018-05-09T03:05:36.482Z,3.50
2018-05-09T03:08:04.479Z,4.23
2018-05-09T03:10:32.382Z,3.80
2018-05-09T03:13:01.191Z,4.60
2018-05-09T03:15:29.098Z,4.60
2018-05-09T03:17:57.077Z,4.53
2018-05-09T03:20:25.119Z,5.00
2018-05-09T03:22:53.071Z,4.83
2018-05-09T03:25:20.960Z,4.77
2018-05-09T03:27:49.002Z,4.83
2018-05-09T03:30:17.727Z,5.20
2018-05-09T03:32:45.679Z,4.97
2018-05-09T03:35:13.646Z,5.43
2018-05-09T03:37:41.532Z,5.30
2018-05-09T03:40:09.548Z,5.30
2018-05-09T03:42:37.695Z,5.63
2018-05-09T03:45:06.434Z,5.60
2018-05-09T03:47:34.359Z,6.00
2018-05-09T03:50:02.384Z,5.50
2018-05-09T03:52:30.302Z,5.97
2018-05-09T03:54:58.231Z,5.63
2018-05-09T03:57:26.201Z,5.70
2018-05-09T03:59:54.116Z,5.77
2018-05-09T04:02:38.010Z,5.50
2018-05-09T04:05:17.733Z,5.63
2018-05-09T04:07:58.363Z,5.37
2018-05-09T04:10:26.274Z,5.03
2018-05-09T04:12:54.974Z,5.20
2018-05-09T04:15:22.914Z,5.60
2018-05-09T04:17:51.678Z,6.17
2018-05-09T04:20:19.734Z,5.17
2018-05-09T04:22:47.765Z,6.37
2018-05-09T04:25:15.716Z,5.80
2018-05-09T04:27:44.482Z,5.97
2018-05-09T04:30:12.433Z,5.73
2018-05-09T04:32:40.393Z,5.47
2018-05-09T04:35:08.327Z,5.70
2018-05-09T04:37:36.366Z,5.50
2018-05-09T04:40:04.347Z,5.50
2018-05-09T04:42:33.057Z,5.90
2018-05-09T04:45:00.998Z,6.10
2018-05-09T04:47:28.901Z,6.27
2018-05-09T04:49:56.779Z,5.67
2018-05-09T04:52:24.699Z,6.00
2018-05-09T04:54:52.702Z,6.13
2018-05-09T04:57:20.595Z,5.80
2018-05-09T04:59:48.535Z,5.63
2018-05-09T05:02:16.502Z,5.73
2018-05-09T05:04:44.474Z,6.13
2018-05-09T05:07:12.474Z,5.70
2018-05-09T05:09:40.383Z,5.73
2018-05-09T05:12:08.393Z,5.80
2018-05-09T05:14:36.518Z,5.97
2018-05-09T05:17:04.437Z,6.33
2018-05-09T05:19:32.347Z,5.63
2018-05-09T05:22:00.392Z,6.07
2018-05-09T05:24:28.371Z,5.80
2018-05-09T05:26:56.363Z,5.57
2018-05-09T05:29:24.449Z,6.00
2018-05-09T05:31:53.130Z,5.77
2018-05-09T05:34:21.063Z,5.90
2018-05-09T05:36:49.003Z,6.07
2018-05-09T05:39:16.907Z,5.30
2018-05-09T05:41:44.796Z,5.70
2018-05-09T05:44:12.726Z,5.17
2018-05-09T05:46:40.650Z,5.10
2018-05-09T05:49:09.391Z,4.50
2018-05-09T05:51:37.496Z,4.10
2018-05-09T05:54:05.475Z,3.80
2018-05-09T05:56:33.539Z,3.75
2018-05-09T05:59:01.639Z,3.40
2018-05-09T06:01:29.617Z,3.33
2018-05-09T06:03:57.511Z,3.77
2018-05-09T06:06:25.518Z,3.30
2018-05-09T06:08:53.398Z,3.00
2018-05-09T06:11:22.100Z,2.70
2018-05-09T06:13:50.826Z,3.00
2018-05-09T06:16:18.774Z,2.40
2018-05-09T06:18:46.761Z,2.20
2018-05-09T06:21:14.697Z,2.90
2018-05-09T06:23:43.438Z,2.33
2018-05-09T06:26:11.370Z,2.23
2018-05-09T06:28:39.446Z,2.47
2018-05-09T06:31:07.366Z,2.20
2018-05-09T06:33:35.268Z,2.03
2018-05-09T06:36:03.284Z,2.30
2018-05-09T06:38:31.217Z,2.23
2018-05-09T06:40:59.179Z,2.40
2018-05-09T06:43:27.111Z,2.00
2018-05-09T06:45:55.108Z,2.20
2018-05-09T06:48:23.862Z,2.10
2018-05-09T06:50:51.819Z,3.70
2018-05-09T06:53:19.822Z,2.60
2018-05-09T06:55:48.609Z,2.63
2018-05-09T06:58:17.385Z,2.33
2018-05-09T07:00:45.358Z,2.50
2018-05-09T07:03:13.403Z,2.40
2018-05-09T07:05:41.426Z,2.37
2018-05-09T07:08:10.088Z,2.50
2018-05-09T07:10:38.258Z,2.50
2018-05-09T07:13:06.218Z,2.40
2018-05-09T07:15:34.220Z,2.57
2018-05-09T07:18:02.934Z,2.62
2018-05-09T07:20:30.900Z,2.17
2018-05-09T07:22:58.862Z,2.20
2018-05-09T07:25:26.806Z,1.90
2018-05-09T07:27:55.513Z,2.40
2018-05-09T07:30:24.223Z,2.37
2018-05-09T07:32:52.146Z,2.53
2018-05-09T07:35:20.084Z,2.23
2018-05-09T07:37:48.067Z,2.40
2018-05-09T07:40:15.965Z,1.90
2018-05-09T07:42:44.730Z,2.10
2018-05-09T07:45:12.670Z,2.07
2018-05-09T07:47:40.678Z,2.17
2018-05-09T07:50:08.607Z,2.40
2018-05-09T07:52:36.589Z,2.40
2018-05-09T07:55:04.550Z,2.30
2018-05-09T07:57:32.480Z,2.10
2018-05-09T08:00:01.179Z,2.37
2018-05-09T08:02:29.078Z,3.13
2018-05-09T08:04:57.051Z,2.47
2018-05-09T08:07:25.719Z,2.60
2018-05-09T08:09:53.705Z,2.67
2018-05-09T08:12:21.736Z,2.87
2018-05-09T08:14:49.620Z,2.78
2018-05-09T08:17:17.580Z,2.85
2018-05-09T08:19:45.588Z,3.17
2018-05-09T08:22:13.516Z,3.10
2018-05-09T08:24:41.512Z,3.03
2018-05-09T08:27:09.451Z,3.00
2018-05-09T08:29:37.442Z,2.97
2018-05-09T08:32:05.362Z,2.93
2018-05-09T08:34:33.318Z,3.20
2018-05-09T08:37:01.310Z,3.07
2018-05-09T08:39:29.975Z,2.93
2018-05-09T08:41:57.895Z,3.10
2018-05-09T08:44:25.820Z,3.30
2018-05-09T08:46:53.782Z,3.67
2018-05-09T08:49:21.798Z,3.13
2018-05-09T08:51:49.810Z,3.05
2018-05-09T08:54:17.718Z,3.22
2018-05-09T08:56:46.445Z,3.20
2018-05-09T08:59:14.421Z,3.03
2018-05-09T09:01:43.152Z,3.17
2018-05-09T09:04:11.929Z,3.20
2018-05-09T09:06:39.861Z,3.03
2018-05-09T09:09:07.866Z,2.90
2018-05-09T09:11:35.780Z,2.87
2018-05-09T09:14:03.675Z,3.07
2018-05-09T09:16:32.358Z,2.80
2018-05-09T09:19:00.364Z,3.40
2018-05-09T09:21:28.337Z,3.20
2018-05-09T09:23:56.257Z,2.77
2018-05-09T09:26:24.214Z,2.65
2018-05-09T09:28:52.115Z,3.30
2018-05-09T09:31:20.033Z,3.05
2018-05-09T09:33:48.746Z,3.10
2018-05-09T09:36:16.681Z,2.77
2018-05-09T09:38:45.449Z,2.83
2018-05-09T09:41:13.538Z,3.00
2018-05-09T09:43:42.282Z,2.97
2018-05-09T09:46:10.172Z,3.17
2018-05-09T09:48:38.257Z,3.10
2018-05-09T09:51:06.950Z,2.57
2018-05-09T09:53:35.715Z,3.00
2018-05-09T09:56:03.647Z,2.40
2018-05-09T09:58:31.598Z,2.47
2018-05-09T10:00:59.567Z,2.97
2018-05-09T10:03:27.529Z,2.30
2018-05-09T10:05:56.254Z,2.67
2018-05-09T10:08:24.146Z,2.73
2018-05-09T10:10:52.112Z,2.67
2018-05-09T10:13:20.046Z,2.23
2018-05-09T10:15:48.023Z,3.10
2018-05-09T10:18:16.060Z,2.70
2018-05-09T10:20:44.733Z,2.30
2018-05-09T10:23:13.508Z,2.57
2018-05-09T10:25:41.522Z,2.53
2018-05-09T10:28:09.424Z,2.33
2018-05-09T10:30:37.438Z,2.60
2018-05-09T10:33:06.239Z,2.87
2018-05-09T10:35:34.977Z,3.20
2018-05-09T10:38:02.915Z,2.93
2018-05-09T10:40:30.870Z,2.50
2018-05-09T10:42:58.798Z,2.93
2018-05-09T10:45:26.799Z,2.60
2018-05-09T10:47:55.507Z,2.50
2018-05-09T10:50:23.545Z,2.70
2018-05-09T10:52:52.311Z,2.97
2018-05-09T10:55:20.391Z,2.50
2018-05-09T10:57:48.319Z,2.97
2018-05-09T11:00:16.264Z,2.87
2018-05-09T11:02:44.235Z,2.50
2018-05-09T11:05:12.145Z,3.10
2018-05-09T11:07:40.082Z,3.07
2018-05-09T11:10:08.027Z,2.70
2018-05-09T11:12:36.779Z,2.80
2018-05-09T11:15:04.747Z,2.53
2018-05-09T11:17:32.749Z,2.70
2018-05-09T11:20:00.692Z,2.60
2018-05-09T11:22:31.476Z,2.27
2018-05-09T11:24:59.485Z,2.70
2018-05-09T11:27:27.410Z,2.50
2018-05-09T11:29:55.402Z,2.70
2018-05-09T11:32:23.327Z,2.70
2018-05-09T11:34:51.995Z,2.37
2018-05-09T11:37:19.927Z,2.60
2018-05-09T11:39:47.859Z,2.33
2018-05-09T11:42:16.563Z,2.50
2018-05-09T11:44:44.521Z,2.93
2018-05-09T11:47:13.249Z,2.83
2018-05-09T11:49:41.164Z,2.63
2018-05-09T11:52:09.863Z,2.50
2018-05-09T11:54:38.630Z,2.43
2018-05-09T11:57:06.511Z,2.70
2018-05-09T11:59:35.213Z,2.40
2018-05-09T12:02:03.282Z,2.50
2018-05-09T12:04:31.979Z,2.50
2018-05-09T12:06:59.884Z,2.23
2018-05-09T12:09:27.824Z,2.33
2018-05-09T12:11:55.795Z,2.33
2018-05-09T12:14:23.700Z,2.07
2018-05-09T12:16:52.406Z,2.23
2018-05-09T12:19:20.332Z,2.40
2018-05-09T12:21:48.270Z,2.60
2018-05-09T12:24:16.188Z,2.60
2018-05-09T12:26:44.114Z,2.17
2018-05-09T12:29:12.033Z,2.40
2018-05-09T12:31:40.004Z,2.50
2018-05-09T12:34:07.951Z,2.10
2018-05-09T12:36:35.952Z,2.08
2018-05-09T12:39:04.066Z,2.27
2018-05-09T12:41:32.065Z,2.00
2018-05-09T12:44:00.035Z,2.10
2018-05-09T12:46:27.990Z,2.20
2018-05-09T12:48:55.980Z,2.40
2018-05-09T12:51:23.931Z,2.30
2018-05-09T12:53:51.892Z,2.20
2018-05-09T12:56:19.819Z,2.23
2018-05-09T12:58:47.797Z,2.13
2018-05-09T13:01:16.564Z,2.30
2018-05-09T13:03:44.547Z,2.30
2018-05-09T13:06:12.546Z,2.22
2018-05-09T13:08:40.589Z,2.62
2018-05-09T13:11:08.500Z,2.60
2018-05-09T13:13:36.418Z,2.93
2018-05-09T13:16:04.425Z,2.20
2018-05-09T13:18:32.341Z,2.53
2018-05-09T13:21:00.271Z,2.30
2018-05-09T13:23:28.301Z,2.27
2018-05-09T13:25:56.367Z,2.10
2018-05-09T13:28:24.294Z,2.10
2018-05-09T13:30:52.306Z,2.30
2018-05-09T13:33:20.328Z,2.27
2018-05-09T13:35:48.265Z,2.20
2018-05-09T13:38:17.027Z,2.60
2018-05-09T13:40:45.957Z,2.40
2018-05-09T13:43:13.886Z,2.55
2018-05-09T13:45:41.823Z,2.30
2018-05-09T13:48:09.809Z,2.40
2018-05-09T13:50:37.803Z,2.53
2018-05-09T13:53:05.885Z,2.73
2018-05-09T13:55:33.784Z,2.60
2018-05-09T13:58:01.724Z,2.47
2018-05-09T14:00:30.464Z,2.70
2018-05-09T14:02:58.366Z,2.40
2018-05-09T14:05:26.311Z,2.80
2018-05-09T14:07:54.879Z,2.63
2018-05-09T14:10:22.819Z,2.50
2018-05-09T14:12:51.491Z,2.67
2018-05-09T14:15:20.254Z,2.60
2018-05-09T14:17:48.246Z,2.53
2018-05-09T14:20:16.170Z,2.63
2018-05-09T14:22:44.185Z,2.87
2018-05-09T14:25:12.926Z,2.77
2018-05-09T14:27:40.922Z,2.33
2018-05-09T14:30:08.914Z,2.30
2018-05-09T14:32:37.691Z,2.80
2018-05-09T14:35:05.708Z,2.40
2018-05-09T14:37:33.729Z,2.73
2018-05-09T14:40:01.641Z,2.60
2018-05-09T14:42:29.636Z,2.33
2018-05-09T14:44:57.673Z,2.63
2018-05-09T14:47:26.375Z,2.57
2018-05-09T14:49:54.358Z,2.43
2018-05-09T14:52:22.356Z,2.30
2018-05-09T14:54:50.279Z,2.70
2018-05-09T14:57:18.217Z,2.60
2018-05-09T14:59:46.943Z,2.80
2018-05-09T15:02:14.921Z,2.40
2018-05-09T15:04:42.937Z,3.20
2018-05-09T15:07:10.898Z,3.77
2018-05-09T15:09:38.816Z,3.17
2018-05-09T15:12:06.809Z,3.70
2018-05-09T15:14:34.802Z,4.33
2018-05-09T15:17:02.774Z,5.03
2018-05-09T15:19:31.147Z,4.67
2018-05-09T15:21:59.933Z,4.43
2018-05-09T15:24:27.937Z,4.13
2018-05-09T15:26:56.902Z,4.00
2018-05-09T15:29:24.894Z,4.20
2018-05-09T15:31:53.615Z,4.73
2018-05-09T15:34:21.546Z,5.17
2018-05-09T15:36:49.474Z,4.37
2018-05-09T15:39:17.445Z,4.73
2018-05-09T15:41:45.370Z,4.40
2018-05-09T15:44:14.235Z,3.90
2018-05-09T15:46:42.250Z,3.63
2018-05-09T15:49:10.185Z,3.87
2018-05-09T15:51:38.156Z,3.20
2018-05-09T15:54:06.831Z,3.23
2018-05-09T15:56:34.730Z,3.00
2018-05-09T15:59:03.602Z,3.10
2018-05-09T16:01:32.387Z,3.33
2018-05-09T16:04:00.346Z,3.40
2018-05-09T16:06:28.375Z,3.40
2018-05-09T16:08:56.279Z,3.50
2018-05-09T16:11:25.763Z,3.33
2018-05-09T16:13:53.693Z,3.20
2018-05-09T16:16:22.406Z,3.43
2018-05-09T16:18:50.366Z,3.23
2018-05-09T16:21:18.351Z,3.27
2018-05-09T16:23:46.284Z,3.17
2018-05-09T16:26:14.981Z,3.10
2018-05-09T16:28:42.973Z,3.30
2018-05-09T16:31:10.993Z,2.90
2018-05-09T16:33:38.897Z,3.10
2018-05-09T16:36:06.882Z,3.70
2018-05-09T16:38:34.799Z,3.67
2018-05-09T16:41:02.782Z,4.73
2018-05-09T16:43:31.480Z,4.43
2018-05-09T16:46:00.175Z,3.93
2018-05-09T16:48:28.202Z,4.40
2018-05-09T16:50:56.181Z,4.40
2018-05-09T16:53:24.135Z,3.90
2018-05-09T16:55:52.153Z,4.13
2018-05-09T16:58:20.123Z,4.43
2018-05-09T17:00:48.086Z,4.17
2018-05-09T17:03:16.873Z,4.20
2018-05-09T17:05:45.605Z,4.20
2018-05-09T17:08:13.557Z,3.80
2018-05-09T17:10:41.556Z,3.40
2018-05-09T17:13:09.620Z,3.30
2018-05-09T17:15:37.558Z,3.33
2018-05-09T17:18:05.863Z,3.20
2018-05-09T17:20:33.869Z,3.70
2018-05-09T17:23:01.864Z,3.43
2018-05-09T17:25:29.787Z,2.83
2018-05-09T17:27:57.714Z,3.40
2018-05-09T17:30:25.675Z,3.60
2018-05-09T17:32:53.719Z,4.30
2018-05-09T17:35:21.770Z,3.93
2018-05-09T17:37:49.931Z,4.20
2018-05-09T17:40:17.907Z,4.53
2018-05-09T17:42:45.889Z,4.20
2018-05-09T17:45:15.306Z,3.80
2018-05-09T17:47:44.030Z,3.50
2018-05-09T17:50:12.019Z,2.80
2018-05-09T17:52:45.917Z,3.20
2018-05-09T17:55:13.838Z,2.87
2018-05-09T17:57:41.788Z,2.80
2018-05-09T18:00:09.796Z,3.17
2018-05-09T18:02:38.626Z,3.07
2018-05-09T18:05:06.574Z,3.07
2018-05-09T18:07:34.489Z,3.00
2018-05-09T18:10:02.475Z,2.73
2018-05-09T18:12:30.494Z,2.67
2018-05-09T18:14:58.423Z,2.80
2018-05-09T18:17:27.220Z,2.50
2018-05-09T18:19:55.904Z,2.43
2018-05-09T18:22:24.658Z,2.87
2018-05-09T18:24:52.598Z,2.60
2018-05-09T18:27:20.571Z,2.83
2018-05-09T18:29:48.584Z,2.63
2018-05-09T18:32:16.597Z,2.67
2018-05-09T18:34:44.495Z,2.67
2018-05-09T18:37:12.586Z,2.80
2018-05-09T18:39:40.590Z,3.30
2018-05-09T18:42:09.322Z,3.53
2018-05-09T18:44:37.361Z,3.87
2018-05-09T18:47:05.338Z,3.50
2018-05-09T18:49:33.529Z,3.80
2018-05-09T18:52:01.493Z,3.63
2018-05-09T18:54:29.456Z,3.97
2018-05-09T18:56:57.389Z,4.03
2018-05-09T18:59:26.077Z,4.20
2018-05-09T19:01:54.857Z,4.80
2018-05-09T19:04:23.610Z,4.57
2018-05-09T19:06:51.582Z,4.10
2018-05-09T19:09:20.355Z,4.83
2018-05-09T19:11:48.320Z,4.37
2018-05-09T19:14:16.219Z,4.70
2018-05-09T19:16:44.145Z,5.10
2018-05-09T19:19:12.066Z,5.17
2018-05-09T19:21:40.015Z,5.00
2018-05-09T19:24:07.966Z,4.60
2018-05-09T19:26:35.910Z,5.13
2018-05-09T19:29:03.871Z,5.47
2018-05-09T19:31:32.558Z,5.33
2018-05-09T19:34:01.220Z,5.47
2018-05-09T19:36:29.142Z,5.23
2018-05-09T19:38:57.059Z,4.97
2018-05-09T19:41:25.061Z,5.10
2018-05-09T19:43:52.961Z,5.00
2018-05-09T19:46:20.876Z,4.83
2018-05-09T19:48:49.578Z,4.87
2018-05-09T19:51:17.611Z,5.07
2018-05-09T19:53:45.557Z,5.20
2018-05-09T19:56:13.485Z,4.60
2018-05-09T19:58:42.207Z,5.33
2018-05-09T20:01:10.147Z,5.27
2018-05-09T20:03:38.081Z,4.53
2018-05-09T20:06:06.036Z,5.00
2018-05-09T20:08:34.012Z,7.23
2018-05-09T20:11:01.977Z,5.53
2018-05-09T20:13:29.900Z,4.33
2018-05-09T20:15:57.969Z,3.77
2018-05-09T20:18:25.974Z,4.27
2018-05-09T20:20:53.955Z,3.90
2018-05-09T20:23:21.890Z,3.90
2018-05-09T20:25:49.857Z,4.00
2018-05-09T20:28:17.771Z,3.50
2018-05-09T20:30:51.381Z,3.50
2018-05-09T20:33:19.299Z,3.53
2018-05-09T20:35:47.207Z,3.53
2018-05-09T20:38:15.127Z,3.33
2018-05-09T20:40:43.104Z,2.93
2018-05-09T20:43:11.094Z,2.80
2018-05-09T20:45:39.088Z,2.80
2018-05-09T20:48:07.026Z,2.67
2018-05-09T20:50:34.928Z,2.80
2018-05-09T20:53:02.944Z,2.60
2018-05-09T20:55:36.906Z,2.50
2018-05-09T20:58:04.894Z,2.13
2018-05-09T21:00:33.578Z,2.30
2018-05-09T21:03:01.564Z,2.60
2018-05-09T21:05:30.290Z,2.60
2018-05-09T21:07:58.207Z,2.50
2018-05-09T21:10:26.976Z,2.30
2018-05-09T21:12:54.914Z,2.40
2018-05-09T21:15:23.759Z,2.33
2018-05-09T21:17:52.511Z,2.50
2018-05-09T21:20:20.509Z,2.50
2018-05-09T21:22:49.194Z,2.20
2018-05-09T21:25:17.345Z,2.30
2018-05-09T21:27:45.355Z,2.23
2018-05-09T21:30:13.274Z,2.17
2018-05-09T21:32:41.238Z,2.30
2018-05-09T21:35:09.201Z,2.60
2018-05-09T21:37:37.180Z,2.63
2018-05-09T21:40:05.166Z,2.37
2018-05-09T21:42:33.186Z,2.40
2018-05-09T21:45:01.147Z,2.30
2018-05-09T21:47:29.816Z,2.40
2018-05-09T21:49:57.809Z,1.90
2018-05-09T21:52:25.795Z,2.43
2018-05-09T21:54:53.730Z,2.50
2018-05-09T21:57:22.449Z,2.30
2018-05-09T21:59:50.367Z,2.40
2018-05-09T22:02:18.314Z,2.47
2018-05-09T22:04:46.250Z,2.50
2018-05-09T22:07:14.226Z,2.53
2018-05-09T22:09:42.203Z,2.60
2018-05-09T22:12:10.151Z,2.57
2018-05-09T22:14:38.240Z,2.90
2018-05-09T22:17:06.213Z,2.60
2018-05-09T22:19:34.233Z,2.60
2018-05-09T22:22:02.923Z,2.50
2018-05-09T22:24:30.997Z,2.40
2018-05-09T22:26:58.985Z,2.60
2018-05-09T22:29:27.705Z,2.63
2018-05-09T22:31:55.630Z,2.57
2018-05-09T22:34:24.364Z,2.50
2018-05-09T22:36:52.375Z,2.43
2018-05-09T22:39:20.303Z,2.57
2018-05-09T22:41:48.254Z,2.67
2018-05-09T22:44:16.226Z,2.40
2018-05-09T22:46:44.147Z,2.30
2018-05-09T22:49:12.096Z,2.80
2018-05-09T22:51:40.089Z,2.70
2018-05-09T22:54:08.081Z,2.53
2018-05-09T22:56:36.859Z,2.33
2018-05-09T22:59:05.539Z,2.60
2018-05-09T23:01:33.461Z,2.80
2018-05-09T23:04:01.406Z,3.10
2018-05-09T23:06:29.337Z,3.43
2018-05-09T23:08:57.326Z,3.63
2018-05-09T23:11:25.316Z,3.10
2018-05-09T23:13:53.291Z,2.97
2018-05-09T23:16:21.220Z,2.77
2018-05-09T23:18:49.271Z,2.80
2018-05-09T23:21:17.178Z,2.80
2018-05-09T23:23:45.904Z,2.33
2018-05-09T23:26:13.867Z,2.60
2018-05-09T23:28:41.893Z,2.80
2018-05-09T23:31:09.870Z,2.70
2018-05-09T23:33:38.607Z,2.43
2018-05-09T23:36:06.630Z,2.33
2018-05-09T23:38:35.332Z,2.50
2018-05-09T23:41:04.077Z,2.20
2018-05-09T23:43:32.068Z,2.47
2018-05-09T23:46:00.816Z,2.40
2018-05-09T23:48:28.836Z,2.40
2018-05-09T23:50:57.654Z,2.50
2018-05-09T23:53:25.572Z,2.43
2018-05-09T23:55:53.608Z,2.43
2018-05-09T23:58:22.310Z,2.20
